sensor_id;sensor_type;location;lat;lon;timestamp;pressure;altitude;pressure_sealevel;temperature;humidity
28683;BME280;15862;43.062;25.626;2022-09-13T00:00:40;99623.19;;;15.60;100.00
28683;BME280;15862;43.062;25.626;2022-09-13T00:03:05;99615.69;;;15.57;100.00
28683;BME280;15862;43.062;25.626;2022-09-13T00:05:31;99615.25;;;15.44;100.00
28683;BME280;15862;43.062;25.626;2022-09-13T00:07:56;99627.09;;;15.39;100.00
28683;BME280;15862;43.062;25.626;2022-09-13T00:10:22;99636.75;;;15.29;100.00
28683;BME280;15862;43.062;25.626;2022-09-13T00:12:48;99619.81;;;15.25;100.00
28683;BME280;15862;43.062;25.626;2022-09-13T00:15:13;99634.91;;;15.12;100.00
28683;BME280;15862;43.062;25.626;2022-09-13T00:17:39;99628.09;;;15.11;100.00
28683;BME280;15862;43.062;25.626;2022-09-13T00:23:00;99639.41;;;15.20;100.00
28683;BME280;15862;43.062;25.626;2022-09-13T00:25:26;99647.75;;;15.23;100.00
28683;BME280;15862;43.062;25.626;2022-09-13T00:27:51;99632.81;;;15.25;100.00
28683;BME280;15862;43.062;25.626;2022-09-13T00:30:16;99631.38;;;15.30;100.00
28683;BME280;15862;43.062;25.626;2022-09-13T00:32:41;99628.78;;;15.30;100.00
28683;BME280;15862;43.062;25.626;2022-09-13T00:35:07;99633.19;;;15.30;100.00
28683;BME280;15862;43.062;25.626;2022-09-13T00:37:32;99635.34;;;15.34;100.00
28683;BME280;15862;43.062;25.626;2022-09-13T00:39:58;99612.69;;;15.18;100.00
28683;BME280;15862;43.062;25.626;2022-09-13T00:42:24;99630.47;;;15.22;100.00
28683;BME280;15862;43.062;25.626;2022-09-13T00:50:13;99640.94;;;14.95;100.00
28683;BME280;15862;43.062;25.626;2022-09-13T00:52:41;99647.38;;;14.91;100.00
28683;BME280;15862;43.062;25.626;2022-09-13T00:55:09;99644.03;;;14.81;100.00
28683;BME280;15862;43.062;25.626;2022-09-13T00:57:36;99647.13;;;14.67;100.00
28683;BME280;15862;43.062;25.626;2022-09-13T01:00:08;99655.59;;;14.69;100.00
28683;BME280;15862;43.062;25.626;2022-09-13T01:02:37;99646.88;;;14.61;100.00
28683;BME280;15862;43.062;25.626;2022-09-13T01:05:04;99645.13;;;14.52;100.00
28683;BME280;15862;43.062;25.626;2022-09-13T01:07:29;99646.50;;;14.47;100.00
28683;BME280;15862;43.062;25.626;2022-09-13T01:09:55;99644.50;;;14.41;100.00
28683;BME280;15862;43.062;25.626;2022-09-13T01:12:38;99639.44;;;14.39;100.00
28683;BME280;15862;43.062;25.626;2022-09-13T01:15:08;99648.09;;;14.30;100.00
28683;BME280;15862;43.062;25.626;2022-09-13T01:17:33;99640.59;;;14.27;100.00
28683;BME280;15862;43.062;25.626;2022-09-13T01:20:00;99645.81;;;14.18;100.00
28683;BME280;15862;43.062;25.626;2022-09-13T01:27:58;99639.41;;;14.12;100.00
28683;BME280;15862;43.062;25.626;2022-09-13T01:30:33;99648.00;;;14.03;100.00
28683;BME280;15862;43.062;25.626;2022-09-13T01:43:50;99660.22;;;13.84;100.00
28683;BME280;15862;43.062;25.626;2022-09-13T01:46:21;99646.84;;;13.79;100.00
28683;BME280;15862;43.062;25.626;2022-09-13T01:51:20;99654.75;;;13.87;100.00
28683;BME280;15862;43.062;25.626;2022-09-13T01:53:57;99650.22;;;13.89;100.00
28683;BME280;15862;43.062;25.626;2022-09-13T01:56:37;99656.22;;;13.99;100.00
28683;BME280;15862;43.062;25.626;2022-09-13T02:01:35;99654.31;;;14.10;100.00
28683;BME280;15862;43.062;25.626;2022-09-13T02:04:06;99649.38;;;14.17;100.00
28683;BME280;15862;43.062;25.626;2022-09-13T02:06:37;99658.38;;;14.22;100.00
28683;BME280;15862;43.062;25.626;2022-09-13T02:09:12;99656.03;;;14.29;100.00
28683;BME280;15862;43.062;25.626;2022-09-13T02:11:40;99651.22;;;14.34;100.00
28683;BME280;15862;43.062;25.626;2022-09-13T02:14:20;99652.88;;;14.35;100.00
28683;BME280;15862;43.062;25.626;2022-09-13T02:19:16;99649.34;;;14.26;100.00
28683;BME280;15862;43.062;25.626;2022-09-13T02:21:45;99646.06;;;14.24;100.00
28683;BME280;15862;43.062;25.626;2022-09-13T02:24:14;99653.72;;;14.26;100.00
28683;BME280;15862;43.062;25.626;2022-09-13T02:26:40;99629.94;;;14.21;100.00
28683;BME280;15862;43.062;25.626;2022-09-13T02:29:09;99646.63;;;14.18;100.00
28683;BME280;15862;43.062;25.626;2022-09-13T02:31:41;99643.50;;;14.15;100.00
28683;BME280;15862;43.062;25.626;2022-09-13T02:34:11;99644.31;;;14.06;100.00
28683;BME280;15862;43.062;25.626;2022-09-13T02:36:38;99638.72;;;14.01;100.00
28683;BME280;15862;43.062;25.626;2022-09-13T02:39:10;99645.16;;;13.97;100.00
28683;BME280;15862;43.062;25.626;2022-09-13T02:41:39;99640.91;;;13.96;100.00
28683;BME280;15862;43.062;25.626;2022-09-13T02:44:10;99645.56;;;13.92;100.00
28683;BME280;15862;43.062;25.626;2022-09-13T02:51:44;99650.63;;;13.94;100.00
28683;BME280;15862;43.062;25.626;2022-09-13T02:56:47;99656.91;;;14.01;100.00
28683;BME280;15862;43.062;25.626;2022-09-13T02:59:17;99645.03;;;13.98;100.00
28683;BME280;15862;43.062;25.626;2022-09-13T03:01:45;99649.50;;;14.06;100.00
28683;BME280;15862;43.062;25.626;2022-09-13T03:04:12;99652.81;;;13.98;100.00
28683;BME280;15862;43.062;25.626;2022-09-13T03:06:38;99657.19;;;13.98;100.00
28683;BME280;15862;43.062;25.626;2022-09-13T03:09:04;99654.31;;;14.01;100.00
28683;BME280;15862;43.062;25.626;2022-09-13T03:16:47;99651.72;;;14.10;100.00
28683;BME280;15862;43.062;25.626;2022-09-13T03:22:03;99655.97;;;14.11;100.00
28683;BME280;15862;43.062;25.626;2022-09-13T03:37:01;99664.28;;;13.96;100.00
28683;BME280;15862;43.062;25.626;2022-09-13T03:41:54;99671.81;;;13.89;100.00
28683;BME280;15862;43.062;25.626;2022-09-13T03:44:22;99679.34;;;13.83;100.00
28683;BME280;15862;43.062;25.626;2022-09-13T03:46:50;99680.59;;;13.79;100.00
28683;BME280;15862;43.062;25.626;2022-09-13T03:49:19;99685.78;;;13.79;100.00
28683;BME280;15862;43.062;25.626;2022-09-13T03:51:47;99675.50;;;13.77;100.00
28683;BME280;15862;43.062;25.626;2022-09-13T03:54:15;99678.56;;;13.73;100.00
28683;BME280;15862;43.062;25.626;2022-09-13T03:56:41;99674.31;;;13.72;100.00
28683;BME280;15862;43.062;25.626;2022-09-13T03:59:07;99684.25;;;13.67;100.00
28683;BME280;15862;43.062;25.626;2022-09-13T04:01:32;99686.31;;;13.64;100.00
28683;BME280;15862;43.062;25.626;2022-09-13T04:03:58;99684.13;;;13.59;100.00
28683;BME280;15862;43.062;25.626;2022-09-13T04:06:23;99682.06;;;13.63;100.00
28683;BME280;15862;43.062;25.626;2022-09-13T04:08:48;99682.22;;;13.61;100.00
28683;BME280;15862;43.062;25.626;2022-09-13T04:11:14;99683.06;;;13.62;100.00
28683;BME280;15862;43.062;25.626;2022-09-13T04:13:39;99687.16;;;13.64;100.00
28683;BME280;15862;43.062;25.626;2022-09-13T04:16:05;99688.81;;;13.65;100.00
28683;BME280;15862;43.062;25.626;2022-09-13T04:18:31;99692.88;;;13.68;100.00
28683;BME280;15862;43.062;25.626;2022-09-13T04:20:57;99699.03;;;13.67;100.00
28683;BME280;15862;43.062;25.626;2022-09-13T04:23:23;99696.59;;;13.65;100.00
28683;BME280;15862;43.062;25.626;2022-09-13T04:25:48;99701.06;;;13.73;100.00
28683;BME280;15862;43.062;25.626;2022-09-13T04:28:15;99688.38;;;13.79;100.00
28683;BME280;15862;43.062;25.626;2022-09-13T04:30:42;99698.63;;;13.80;100.00
28683;BME280;15862;43.062;25.626;2022-09-13T04:33:08;99694.66;;;13.86;100.00
28683;BME280;15862;43.062;25.626;2022-09-13T04:35:33;99697.78;;;13.89;100.00
28683;BME280;15862;43.062;25.626;2022-09-13T04:37:58;99703.53;;;13.93;100.00
28683;BME280;15862;43.062;25.626;2022-09-13T04:40:23;99705.19;;;13.94;100.00
28683;BME280;15862;43.062;25.626;2022-09-13T04:42:49;99698.19;;;13.94;100.00
28683;BME280;15862;43.062;25.626;2022-09-13T04:45:14;99698.59;;;13.99;100.00
28683;BME280;15862;43.062;25.626;2022-09-13T04:47:40;99702.41;;;14.05;100.00
28683;BME280;15862;43.062;25.626;2022-09-13T04:50:05;99708.00;;;14.10;100.00
28683;BME280;15862;43.062;25.626;2022-09-13T04:52:31;99702.69;;;14.21;100.00
28683;BME280;15862;43.062;25.626;2022-09-13T04:54:56;99700.47;;;14.35;100.00
28683;BME280;15862;43.062;25.626;2022-09-13T04:57:25;99704.25;;;14.50;100.00
28683;BME280;15862;43.062;25.626;2022-09-13T04:59:51;99697.63;;;14.65;100.00
28683;BME280;15862;43.062;25.626;2022-09-13T05:02:16;99693.59;;;14.80;100.00
28683;BME280;15862;43.062;25.626;2022-09-13T05:04:41;99697.22;;;14.96;100.00
28683;BME280;15862;43.062;25.626;2022-09-13T05:07:06;99697.00;;;15.07;100.00
28683;BME280;15862;43.062;25.626;2022-09-13T05:09:32;99693.81;;;15.13;100.00
28683;BME280;15862;43.062;25.626;2022-09-13T05:11:57;99694.34;;;15.26;100.00
28683;BME280;15862;43.062;25.626;2022-09-13T05:14:22;99692.81;;;15.41;100.00
28683;BME280;15862;43.062;25.626;2022-09-13T05:16:47;99693.00;;;15.57;100.00
28683;BME280;15862;43.062;25.626;2022-09-13T05:19:13;99686.44;;;15.53;100.00
28683;BME280;15862;43.062;25.626;2022-09-13T05:21:38;99684.28;;;15.66;100.00
28683;BME280;15862;43.062;25.626;2022-09-13T05:24:03;99690.66;;;15.89;100.00
28683;BME280;15862;43.062;25.626;2022-09-13T05:26:29;99679.47;;;16.72;100.00
28683;BME280;15862;43.062;25.626;2022-09-13T05:29:00;99667.94;;;18.11;100.00
28683;BME280;15862;43.062;25.626;2022-09-13T05:31:28;99667.88;;;19.58;100.00
28683;BME280;15862;43.062;25.626;2022-09-13T05:33:58;99666.91;;;21.25;89.59
28683;BME280;15862;43.062;25.626;2022-09-13T05:36:23;99662.50;;;22.36;75.10
28683;BME280;15862;43.062;25.626;2022-09-13T05:38:50;99663.38;;;23.37;69.55
28683;BME280;15862;43.062;25.626;2022-09-13T05:41:16;99659.59;;;23.85;64.75
28683;BME280;15862;43.062;25.626;2022-09-13T05:43:41;99660.38;;;25.06;58.18
28683;BME280;15862;43.062;25.626;2022-09-13T05:46:09;99656.81;;;25.62;55.33
28683;BME280;15862;43.062;25.626;2022-09-13T05:48:35;99660.31;;;25.87;53.05
28683;BME280;15862;43.062;25.626;2022-09-13T05:51:14;99655.13;;;25.74;52.08
28683;BME280;15862;43.062;25.626;2022-09-13T05:53:40;99658.13;;;25.84;50.92
28683;BME280;15862;43.062;25.626;2022-09-13T05:56:13;99662.59;;;26.08;50.16
28683;BME280;15862;43.062;25.626;2022-09-13T05:58:39;99660.25;;;26.78;49.24
28683;BME280;15862;43.062;25.626;2022-09-13T06:01:05;99660.25;;;26.96;47.10
28683;BME280;15862;43.062;25.626;2022-09-13T06:03:30;99654.94;;;27.43;45.43
28683;BME280;15862;43.062;25.626;2022-09-13T06:05:56;99655.41;;;27.81;44.07
28683;BME280;15862;43.062;25.626;2022-09-13T06:08:25;99664.25;;;28.27;43.59
28683;BME280;15862;43.062;25.626;2022-09-13T06:10:58;99667.97;;;28.49;41.43
28683;BME280;15862;43.062;25.626;2022-09-13T06:13:23;99664.22;;;29.24;41.23
28683;BME280;15862;43.062;25.626;2022-09-13T06:15:49;99655.06;;;30.08;38.90
28683;BME280;15862;43.062;25.626;2022-09-13T06:18:14;99663.00;;;30.03;39.11
28683;BME280;15862;43.062;25.626;2022-09-13T06:20:40;99664.09;;;30.56;37.45
28683;BME280;15862;43.062;25.626;2022-09-13T06:23:06;99654.91;;;30.90;36.50
28683;BME280;15862;43.062;25.626;2022-09-13T06:25:31;99658.09;;;31.35;35.86
28683;BME280;15862;43.062;25.626;2022-09-13T06:27:56;99655.72;;;31.12;36.03
28683;BME280;15862;43.062;25.626;2022-09-13T06:30:22;99660.63;;;30.77;35.43
28683;BME280;15862;43.062;25.626;2022-09-13T06:32:47;99662.16;;;30.95;36.15
28683;BME280;15862;43.062;25.626;2022-09-13T06:35:12;99664.03;;;30.94;35.93
28683;BME280;15862;43.062;25.626;2022-09-13T06:37:38;99669.34;;;31.10;35.18
28683;BME280;15862;43.062;25.626;2022-09-13T06:40:03;99669.09;;;31.38;35.13
28683;BME280;15862;43.062;25.626;2022-09-13T06:42:29;99667.94;;;32.13;34.01
28683;BME280;15862;43.062;25.626;2022-09-13T06:44:55;99663.22;;;32.25;33.50
28683;BME280;15862;43.062;25.626;2022-09-13T06:47:20;99674.47;;;32.64;33.01
28683;BME280;15862;43.062;25.626;2022-09-13T06:49:46;99668.78;;;32.14;32.94
28683;BME280;15862;43.062;25.626;2022-09-13T06:52:11;99672.84;;;32.67;32.85
28683;BME280;15862;43.062;25.626;2022-09-13T06:54:36;99674.56;;;33.69;31.78
28683;BME280;15862;43.062;25.626;2022-09-13T06:57:01;99674.03;;;34.02;30.07
28683;BME280;15862;43.062;25.626;2022-09-13T06:59:27;99681.56;;;34.30;30.40
28683;BME280;15862;43.062;25.626;2022-09-13T07:01:52;99673.19;;;34.51;30.61
28683;BME280;15862;43.062;25.626;2022-09-13T07:04:18;99679.59;;;35.38;29.81
28683;BME280;15862;43.062;25.626;2022-09-13T07:06:46;99682.78;;;35.40;28.73
28683;BME280;15862;43.062;25.626;2022-09-13T07:09:13;99696.59;;;35.72;28.39
28683;BME280;15862;43.062;25.626;2022-09-13T07:11:40;99685.53;;;33.53;28.97
28683;BME280;15862;43.062;25.626;2022-09-13T07:14:05;99692.66;;;31.41;32.47
28683;BME280;15862;43.062;25.626;2022-09-13T07:16:32;99691.25;;;30.37;33.12
28683;BME280;15862;43.062;25.626;2022-09-13T07:18:58;99699.59;;;28.16;36.79
28683;BME280;15862;43.062;25.626;2022-09-13T07:21:24;99705.47;;;28.07;38.19
28683;BME280;15862;43.062;25.626;2022-09-13T07:23:50;99696.97;;;28.28;36.79
28683;BME280;15862;43.062;25.626;2022-09-13T07:26:16;99698.41;;;29.04;35.96
28683;BME280;15862;43.062;25.626;2022-09-13T07:28:45;99697.22;;;30.44;34.03
28683;BME280;15862;43.062;25.626;2022-09-13T07:31:15;99699.88;;;31.93;32.16
28683;BME280;15862;43.062;25.626;2022-09-13T07:33:42;99701.84;;;33.46;30.62
28683;BME280;15862;43.062;25.626;2022-09-13T07:36:07;99695.75;;;33.91;30.43
28683;BME280;15862;43.062;25.626;2022-09-13T07:38:37;99701.91;;;34.46;29.38
28683;BME280;15862;43.062;25.626;2022-09-13T07:41:03;99699.72;;;34.88;27.89
28683;BME280;15862;43.062;25.626;2022-09-13T07:43:30;99693.88;;;35.77;27.51
28683;BME280;15862;43.062;25.626;2022-09-13T07:46:15;99695.63;;;35.58;28.10
28683;BME280;15862;43.062;25.626;2022-09-13T07:48:42;99693.75;;;34.91;28.84
28683;BME280;15862;43.062;25.626;2022-09-13T07:51:08;99692.91;;;35.10;28.50
28683;BME280;15862;43.062;25.626;2022-09-13T07:53:35;99694.22;;;35.17;28.47
28683;BME280;15862;43.062;25.626;2022-09-13T07:56:01;99689.59;;;36.09;27.00
28683;BME280;15862;43.062;25.626;2022-09-13T07:58:27;99686.09;;;35.76;27.11
28683;BME280;15862;43.062;25.626;2022-09-13T08:00:52;99689.03;;;35.31;28.16
28683;BME280;15862;43.062;25.626;2022-09-13T08:03:18;99684.19;;;34.70;28.61
28683;BME280;15862;43.062;25.626;2022-09-13T08:05:43;99695.22;;;33.64;29.51
28683;BME280;15862;43.062;25.626;2022-09-13T08:08:08;99697.53;;;31.02;32.15
28683;BME280;15862;43.062;25.626;2022-09-13T08:10:33;99678.56;;;30.27;33.44
28683;BME280;15862;43.062;25.626;2022-09-13T08:12:59;99684.66;;;30.77;33.60
28683;BME280;15862;43.062;25.626;2022-09-13T08:15:24;99686.19;;;33.09;30.88
28683;BME280;15862;43.062;25.626;2022-09-13T08:17:50;99679.41;;;33.92;29.80
28683;BME280;15862;43.062;25.626;2022-09-13T08:20:15;99682.44;;;35.04;28.86
28683;BME280;15862;43.062;25.626;2022-09-13T08:22:40;99678.22;;;34.83;27.67
28683;BME280;15862;43.062;25.626;2022-09-13T08:25:05;99673.00;;;34.08;28.06
28683;BME280;15862;43.062;25.626;2022-09-13T08:27:31;99674.22;;;32.29;30.43
28683;BME280;15862;43.062;25.626;2022-09-13T08:29:56;99677.19;;;31.70;31.06
28683;BME280;15862;43.062;25.626;2022-09-13T08:32:21;99678.91;;;32.99;29.39
28683;BME280;15862;43.062;25.626;2022-09-13T08:34:47;99678.19;;;34.93;26.38
28683;BME280;15862;43.062;25.626;2022-09-13T08:37:12;99677.97;;;34.74;26.84
28683;BME280;15862;43.062;25.626;2022-09-13T08:39:37;99669.22;;;33.99;28.34
28683;BME280;15862;43.062;25.626;2022-09-13T08:42:09;99677.84;;;33.05;29.29
28683;BME280;15862;43.062;25.626;2022-09-13T08:44:48;99670.84;;;34.00;27.56
28683;BME280;15862;43.062;25.626;2022-09-13T08:49:49;99672.59;;;34.84;26.60
28683;BME280;15862;43.062;25.626;2022-09-13T08:52:34;99670.44;;;32.61;28.56
28683;BME280;15862;43.062;25.626;2022-09-13T08:55:14;99651.47;;;34.38;26.88
28683;BME280;15862;43.062;25.626;2022-09-13T08:57:49;99664.41;;;34.11;27.32
28683;BME280;15862;43.062;25.626;2022-09-13T09:05:21;99636.91;;;30.59;30.59
28683;BME280;15862;43.062;25.626;2022-09-13T09:08:36;99645.69;;;31.77;30.46
28683;BME280;15862;43.062;25.626;2022-09-13T09:10:40;99635.41;;;33.58;28.73
28683;BME280;15862;43.062;25.626;2022-09-13T09:15:33;99629.88;;;34.78;26.87
28683;BME280;15862;43.062;25.626;2022-09-13T09:18:05;99619.84;;;34.00;27.13
28683;BME280;15862;43.062;25.626;2022-09-13T09:20:42;99619.84;;;32.18;29.21
28683;BME280;15862;43.062;25.626;2022-09-13T09:25:43;99618.47;;;30.58;32.43
28683;BME280;15862;43.062;25.626;2022-09-13T09:28:12;99617.97;;;29.41;33.85
28683;BME280;15862;43.062;25.626;2022-09-13T09:30:40;99620.28;;;28.70;34.96
28683;BME280;15862;43.062;25.626;2022-09-13T09:33:12;99617.44;;;30.80;31.54
28683;BME280;15862;43.062;25.626;2022-09-13T09:40:55;99611.03;;;35.74;25.47
28683;BME280;15862;43.062;25.626;2022-09-13T09:43:26;99608.81;;;33.17;28.83
28683;BME280;15862;43.062;25.626;2022-09-13T09:45:54;99611.66;;;34.70;26.38
28683;BME280;15862;43.062;25.626;2022-09-13T09:48:23;99607.25;;;32.65;28.58
28683;BME280;15862;43.062;25.626;2022-09-13T09:50:51;99613.25;;;31.10;31.18
28683;BME280;15862;43.062;25.626;2022-09-13T09:53:18;99607.56;;;29.56;34.19
28683;BME280;15862;43.062;25.626;2022-09-13T09:58:38;99601.59;;;29.98;33.10
28683;BME280;15862;43.062;25.626;2022-09-13T10:01:04;99603.63;;;33.01;29.57
28683;BME280;15862;43.062;25.626;2022-09-13T10:03:31;99607.22;;;34.26;26.97
28683;BME280;15862;43.062;25.626;2022-09-13T10:08:30;99590.44;;;35.60;24.54
28683;BME280;15862;43.062;25.626;2022-09-13T10:10:57;99593.59;;;37.48;23.71
28683;BME280;15862;43.062;25.626;2022-09-13T10:13:26;99596.66;;;36.64;23.91
28683;BME280;15862;43.062;25.626;2022-09-13T10:15:55;99592.47;;;34.18;26.34
28683;BME280;15862;43.062;25.626;2022-09-13T10:18:24;99595.59;;;31.98;28.62
28683;BME280;15862;43.062;25.626;2022-09-13T10:21:04;99594.84;;;30.66;30.30
28683;BME280;15862;43.062;25.626;2022-09-13T10:23:32;99592.44;;;33.09;26.83
28683;BME280;15862;43.062;25.626;2022-09-13T10:28:33;99581.09;;;35.81;25.74
28683;BME280;15862;43.062;25.626;2022-09-13T10:31:03;99589.47;;;36.77;23.18
28683;BME280;15862;43.062;25.626;2022-09-13T10:33:37;99595.50;;;37.48;23.05
28683;BME280;15862;43.062;25.626;2022-09-13T10:36:04;99599.75;;;36.75;22.59
28683;BME280;15862;43.062;25.626;2022-09-13T10:38:33;99584.81;;;34.60;24.48
28683;BME280;15862;43.062;25.626;2022-09-13T10:41:00;99592.31;;;32.74;26.27
28683;BME280;15862;43.062;25.626;2022-09-13T10:43:27;99581.16;;;32.41;26.99
28683;BME280;15862;43.062;25.626;2022-09-13T10:45:53;99577.19;;;34.09;25.63
28683;BME280;15862;43.062;25.626;2022-09-13T10:48:20;99587.69;;;33.60;26.25
28683;BME280;15862;43.062;25.626;2022-09-13T10:56:01;99577.34;;;28.78;30.66
28683;BME280;15862;43.062;25.626;2022-09-13T10:58:26;99570.69;;;29.20;30.58
28683;BME280;15862;43.062;25.626;2022-09-13T11:08:55;99577.22;;;33.59;26.54
28683;BME280;15862;43.062;25.626;2022-09-13T11:14:09;99564.06;;;30.59;30.79
28683;BME280;15862;43.062;25.626;2022-09-13T11:16:58;99568.84;;;30.40;31.23
28683;BME280;15862;43.062;25.626;2022-09-13T11:30:09;99568.66;;;33.57;26.76
28683;BME280;15862;43.062;25.626;2022-09-13T11:40:59;99554.94;;;33.19;27.18
28683;BME280;15862;43.062;25.626;2022-09-13T11:43:51;99558.94;;;31.58;29.44
28683;BME280;15862;43.062;25.626;2022-09-13T11:58:49;99543.88;;;30.68;29.88
28683;BME280;15862;43.062;25.626;2022-09-13T12:01:20;99538.13;;;29.62;30.20
28683;BME280;15862;43.062;25.626;2022-09-13T12:03:50;99537.34;;;29.01;31.80
28683;BME280;15862;43.062;25.626;2022-09-13T12:06:19;99537.69;;;28.65;31.50
28683;BME280;15862;43.062;25.626;2022-09-13T12:08:48;99535.31;;;28.53;32.66
28683;BME280;15862;43.062;25.626;2022-09-13T12:11:22;99536.91;;;28.14;32.98
28683;BME280;15862;43.062;25.626;2022-09-13T12:14:22;99531.06;;;28.40;32.67
28683;BME280;15862;43.062;25.626;2022-09-13T12:16:41;99531.19;;;30.37;29.41
28683;BME280;15862;43.062;25.626;2022-09-13T12:19:12;99518.59;;;32.00;27.94
28683;BME280;15862;43.062;25.626;2022-09-13T12:21:40;99523.06;;;33.57;25.57
28683;BME280;15862;43.062;25.626;2022-09-13T12:27:05;99518.66;;;34.16;24.45
28683;BME280;15862;43.062;25.626;2022-09-13T12:32:05;99532.31;;;31.68;27.59
28683;BME280;15862;43.062;25.626;2022-09-13T12:34:45;99524.69;;;30.28;28.83
28683;BME280;15862;43.062;25.626;2022-09-13T12:37:33;99521.50;;;29.39;30.37
28683;BME280;15862;43.062;25.626;2022-09-13T12:42:46;99522.59;;;29.10;30.76
28683;BME280;15862;43.062;25.626;2022-09-13T12:45:17;99525.56;;;30.33;29.01
28683;BME280;15862;43.062;25.626;2022-09-13T12:52:58;99516.22;;;34.24;25.01
28683;BME280;15862;43.062;25.626;2022-09-13T13:00:45;99516.91;;;33.42;25.13
28683;BME280;15862;43.062;25.626;2022-09-13T13:03:14;99515.53;;;33.64;26.26
28683;BME280;15862;43.062;25.626;2022-09-13T13:05:46;99517.66;;;33.87;25.57
28683;BME280;15862;43.062;25.626;2022-09-13T13:08:22;99510.97;;;33.84;25.00
28683;BME280;15862;43.062;25.626;2022-09-13T13:13:28;99503.88;;;30.46;28.02
28683;BME280;15862;43.062;25.626;2022-09-13T13:15:57;99483.41;;;29.55;29.68
28683;BME280;15862;43.062;25.626;2022-09-13T13:18:25;99509.22;;;30.99;28.06
28683;BME280;15862;43.062;25.626;2022-09-13T13:39:02;99519.25;;;27.86;31.30
28683;BME280;15862;43.062;25.626;2022-09-13T13:44:00;99517.13;;;27.42;32.65
28683;BME280;15862;43.062;25.626;2022-09-13T13:46:30;99513.28;;;27.26;33.58
28683;BME280;15862;43.062;25.626;2022-09-13T13:49:00;99525.94;;;26.84;33.17
28683;BME280;15862;43.062;25.626;2022-09-13T13:51:41;99497.75;;;26.24;33.32
28683;BME280;15862;43.062;25.626;2022-09-13T13:54:27;99521.25;;;26.38;33.77
28683;BME280;15862;43.062;25.626;2022-09-13T13:56:52;99509.53;;;27.05;32.25
28683;BME280;15862;43.062;25.626;2022-09-13T13:59:29;99519.09;;;27.35;31.91
28683;BME280;15862;43.062;25.626;2022-09-13T14:01:56;99513.28;;;27.26;32.55
28683;BME280;15862;43.062;25.626;2022-09-13T14:09:37;99518.94;;;26.24;35.05
28683;BME280;15862;43.062;25.626;2022-09-13T14:12:09;99520.44;;;26.20;35.08
28683;BME280;15862;43.062;25.626;2022-09-13T14:20:03;99528.38;;;25.84;36.26
28683;BME280;15862;43.062;25.626;2022-09-13T14:22:30;99534.72;;;25.52;36.55
28683;BME280;15862;43.062;25.626;2022-09-13T14:24:56;99531.94;;;25.48;36.68
28683;BME280;15862;43.062;25.626;2022-09-13T14:27:26;99523.84;;;25.43;37.16
28683;BME280;15862;43.062;25.626;2022-09-13T14:29:53;99523.63;;;25.44;36.85
28683;BME280;15862;43.062;25.626;2022-09-13T14:32:26;99514.81;;;25.50;37.13
28683;BME280;15862;43.062;25.626;2022-09-13T14:34:54;99532.25;;;25.57;36.90
28683;BME280;15862;43.062;25.626;2022-09-13T14:37:22;99534.03;;;25.39;37.95
28683;BME280;15862;43.062;25.626;2022-09-13T14:42:39;99536.03;;;24.82;38.98
28683;BME280;15862;43.062;25.626;2022-09-13T14:45:04;99534.63;;;24.79;40.11
28683;BME280;15862;43.062;25.626;2022-09-13T14:47:32;99536.03;;;24.82;39.18
28683;BME280;15862;43.062;25.626;2022-09-13T14:50:10;99540.00;;;24.97;39.28
28683;BME280;15862;43.062;25.626;2022-09-13T14:52:39;99528.06;;;25.19;39.21
28683;BME280;15862;43.062;25.626;2022-09-13T14:55:10;99534.38;;;25.18;38.74
28683;BME280;15862;43.062;25.626;2022-09-13T14:57:38;99528.63;;;24.97;38.67
28683;BME280;15862;43.062;25.626;2022-09-13T15:02:38;99539.75;;;24.74;39.40
28683;BME280;15862;43.062;25.626;2022-09-13T15:05:05;99546.69;;;24.69;39.58
28683;BME280;15862;43.062;25.626;2022-09-13T15:07:36;99532.16;;;24.47;39.98
28683;BME280;15862;43.062;25.626;2022-09-13T15:12:33;99545.53;;;24.46;41.64
28683;BME280;15862;43.062;25.626;2022-09-13T15:18:01;99540.72;;;24.17;48.23
28683;BME280;15862;43.062;25.626;2022-09-13T15:23:20;99541.59;;;23.91;40.62
28683;BME280;15862;43.062;25.626;2022-09-13T15:25:47;99539.63;;;23.87;40.84
28683;BME280;15862;43.062;25.626;2022-09-13T15:28:21;99537.38;;;23.84;38.68
28683;BME280;15862;43.062;25.626;2022-09-13T15:30:46;99533.91;;;23.90;39.11
28683;BME280;15862;43.062;25.626;2022-09-13T15:33:31;99539.22;;;23.84;41.25
28683;BME280;15862;43.062;25.626;2022-09-13T15:39:01;99545.91;;;23.73;41.65
28683;BME280;15862;43.062;25.626;2022-09-13T15:41:31;99551.38;;;23.59;40.03
28683;BME280;15862;43.062;25.626;2022-09-13T15:44:00;99548.94;;;23.51;40.47
28683;BME280;15862;43.062;25.626;2022-09-13T15:46:26;99558.28;;;23.47;40.60
28683;BME280;15862;43.062;25.626;2022-09-13T15:48:58;99556.44;;;23.47;41.40
28683;BME280;15862;43.062;25.626;2022-09-13T15:51:25;99550.56;;;23.39;41.36
28683;BME280;15862;43.062;25.626;2022-09-13T15:53:51;99559.88;;;23.35;41.88
28683;BME280;15862;43.062;25.626;2022-09-13T15:56:18;99547.50;;;23.22;42.17
28683;BME280;15862;43.062;25.626;2022-09-13T15:58:44;99560.66;;;23.03;41.84
28683;BME280;15862;43.062;25.626;2022-09-13T16:01:13;99564.66;;;22.99;42.80
28683;BME280;15862;43.062;25.626;2022-09-13T16:03:39;99564.66;;;22.86;43.87
28683;BME280;15862;43.062;25.626;2022-09-13T16:06:05;99563.38;;;22.69;43.26
28683;BME280;15862;43.062;25.626;2022-09-13T16:08:32;99570.59;;;22.54;44.67
28683;BME280;15862;43.062;25.626;2022-09-13T16:10:57;99577.25;;;22.44;49.85
28683;BME280;15862;43.062;25.626;2022-09-13T16:13:23;99575.69;;;22.22;55.28
28683;BME280;15862;43.062;25.626;2022-09-13T16:15:48;99573.06;;;21.95;61.35